createdAt,value
2023-01-29T00:00:20.846Z,91.12
2023-01-29T00:02:47.478Z,91.35
2023-01-29T00:05:27.128Z,91.49
2023-01-29T00:07:56.430Z,90.92
2023-01-29T00:10:24.875Z,91.19
2023-01-29T00:12:51.937Z,91.40
2023-01-29T00:15:18.827Z,91.42
2023-01-29T00:17:45.294Z,91.94
2023-01-29T00:20:12.266Z,92.17
2023-01-29T00:22:38.728Z,92.14
2023-01-29T00:25:05.664Z,91.71
2023-01-29T00:27:32.129Z,92.18
2023-01-29T00:30:16.353Z,92.64
2023-01-29T00:32:43.024Z,91.64
2023-01-29T00:35:09.891Z,92.70
2023-01-29T00:37:36.425Z,92.40
2023-01-29T00:40:03.848Z,92.10
2023-01-29T00:42:49.146Z,92.53
2023-01-29T00:45:15.787Z,92.02
2023-01-29T00:47:42.299Z,91.77
2023-01-29T00:50:11.440Z,92.55
2023-01-29T00:52:38.490Z,92.73
2023-01-29T00:55:05.926Z,92.28
2023-01-29T00:57:34.016Z,91.78
2023-01-29T01:00:01.029Z,92.69
2023-01-29T01:02:46.848Z,92.36
2023-01-29T01:05:19.005Z,92.32
2023-01-29T01:07:47.745Z,91.90
2023-01-29T01:10:21.866Z,92.22
2023-01-29T01:12:50.757Z,92.07
2023-01-29T01:15:18.054Z,92.39
2023-01-29T01:17:44.721Z,92.01
2023-01-29T01:20:12.420Z,92.01
2023-01-29T01:22:38.900Z,92.51
2023-01-29T01:25:05.778Z,91.89
2023-01-29T01:27:32.314Z,92.28
2023-01-29T01:29:58.797Z,92.40
2023-01-29T01:32:26.051Z,91.76
2023-01-29T01:34:53.566Z,92.42
2023-01-29T01:37:20.350Z,92.44
2023-01-29T01:39:48.932Z,92.27
2023-01-29T01:42:15.391Z,92.18
2023-01-29T01:44:53.388Z,92.33
2023-01-29T01:47:27.066Z,92.30
2023-01-29T01:49:54.938Z,92.06
2023-01-29T01:52:21.987Z,91.93
2023-01-29T01:54:49.439Z,92.35
2023-01-29T01:57:25.206Z,92.01
2023-01-29T02:00:09.983Z,92.09
2023-01-29T02:02:57.971Z,91.96
2023-01-29T02:05:43.885Z,92.06
2023-01-29T02:08:29.237Z,92.04
2023-01-29T02:10:55.716Z,92.57
2023-01-29T02:13:23.040Z,92.28
2023-01-29T02:15:49.669Z,92.46
2023-01-29T02:18:19.265Z,92.41
2023-01-29T02:21:31.550Z,92.18
2023-01-29T02:24:38.897Z,92.52
2023-01-29T02:27:11.851Z,92.80
2023-01-29T02:29:49.769Z,92.13
2023-01-29T02:32:21.119Z,92.18
2023-01-29T02:35:28.446Z,92.21
2023-01-29T02:38:11.354Z,92.56
2023-01-29T02:40:45.408Z,91.99
2023-01-29T02:43:44.085Z,91.69
2023-01-29T02:46:19.498Z,91.93
2023-01-29T02:48:57.675Z,91.97
2023-01-29T02:51:38.482Z,91.96
2023-01-29T02:54:32.578Z,92.23
2023-01-29T02:57:05.073Z,92.40
2023-01-29T02:59:42.202Z,92.61
2023-01-29T03:02:16.382Z,92.44
2023-01-29T03:04:49.223Z,91.93
2023-01-29T03:07:41.205Z,92.69
2023-01-29T03:10:17.521Z,92.12
2023-01-29T03:12:51.150Z,92.29
2023-01-29T03:15:27.273Z,92.32
2023-01-29T03:18:11.474Z,92.47
2023-01-29T03:20:48.176Z,92.41
2023-01-29T03:23:24.164Z,92.34
2023-01-29T03:26:18.135Z,92.41
2023-01-29T03:29:04.865Z,92.28
2023-01-29T03:31:50.889Z,92.47
2023-01-29T03:34:24.468Z,92.79
2023-01-29T03:37:05.508Z,92.91
2023-01-29T03:39:31.943Z,93.26
2023-01-29T03:42:04.912Z,93.04
2023-01-29T03:44:37.127Z,93.09
2023-01-29T03:47:13.785Z,93.36
2023-01-29T03:49:49.277Z,93.22
2023-01-29T03:52:25.760Z,93.94
2023-01-29T03:55:10.634Z,94.07
2023-01-29T03:57:54.547Z,93.26
2023-01-29T04:00:28.014Z,93.01
2023-01-29T04:03:24.545Z,93.52
2023-01-29T04:05:50.956Z,93.55
2023-01-29T04:08:29.169Z,93.01
2023-01-29T04:10:59.377Z,93.49
2023-01-29T04:13:27.522Z,93.45
2023-01-29T04:15:58.416Z,92.38
2023-01-29T04:18:25.578Z,92.76
2023-01-29T04:20:52.284Z,92.82
2023-01-29T04:23:24.922Z,92.87
2023-01-29T04:26:25.333Z,92.21
2023-01-29T04:29:30.185Z,92.43
2023-01-29T04:32:20.137Z,92.89
2023-01-29T04:35:05.237Z,93.31
2023-01-29T04:38:02.556Z,92.80
2023-01-29T04:40:41.295Z,92.83
2023-01-29T04:43:30.451Z,93.12
2023-01-29T04:46:21.825Z,92.36
2023-01-29T04:49:13.033Z,92.92
2023-01-29T04:51:45.395Z,92.89
2023-01-29T04:54:33.138Z,92.51
2023-01-29T04:57:08.581Z,92.55
2023-01-29T04:59:42.813Z,92.15
2023-01-29T05:02:11.955Z,92.53
2023-01-29T05:04:40.948Z,92.55
2023-01-29T05:07:12.425Z,92.48
2023-01-29T05:09:40.067Z,91.70
2023-01-29T05:12:10.617Z,91.50
2023-01-29T05:14:39.660Z,91.81
2023-01-29T05:17:12.572Z,92.43
2023-01-29T05:19:39.069Z,92.44
2023-01-29T05:22:08.870Z,91.52
2023-01-29T05:24:35.978Z,92.18
2023-01-29T05:27:22.028Z,91.57
2023-01-29T05:29:48.723Z,91.69
2023-01-29T05:32:16.054Z,91.70
2023-01-29T05:34:42.554Z,92.04
2023-01-29T05:37:10.461Z,91.68
2023-01-29T05:39:36.907Z,91.59
2023-01-29T05:42:03.606Z,91.28
2023-01-29T05:44:30.061Z,91.26
2023-01-29T05:46:56.690Z,91.88
2023-01-29T05:49:23.263Z,91.56
2023-01-29T05:51:49.794Z,91.24
2023-01-29T05:54:16.285Z,91.13
2023-01-29T05:56:42.861Z,91.58
2023-01-29T05:59:09.384Z,91.21
2023-01-29T06:01:35.913Z,91.19
2023-01-29T06:04:02.436Z,91.17
2023-01-29T06:06:28.959Z,91.30
2023-01-29T06:08:56.133Z,91.19
2023-01-29T06:11:22.759Z,91.19
2023-01-29T06:13:49.307Z,90.75
2023-01-29T06:16:15.922Z,90.85
2023-01-29T06:18:42.989Z,90.98
2023-01-29T06:21:12.300Z,91.17
2023-01-29T06:23:39.231Z,91.02
2023-01-29T06:26:08.595Z,90.24
2023-01-29T06:28:35.569Z,90.62
2023-01-29T06:31:23.668Z,90.53
2023-01-29T06:33:50.416Z,90.11
2023-01-29T06:36:16.972Z,90.27
2023-01-29T06:38:43.494Z,89.57
2023-01-29T06:41:12.266Z,89.88
2023-01-29T06:43:39.616Z,89.76
2023-01-29T06:46:08.262Z,89.63
2023-01-29T06:48:34.885Z,88.98
2023-01-29T06:51:05.705Z,89.56
2023-01-29T06:53:34.472Z,89.74
2023-01-29T06:56:01.199Z,89.17
2023-01-29T06:58:27.713Z,89.24
2023-01-29T07:00:54.251Z,89.23
2023-01-29T07:03:20.854Z,89.64
2023-01-29T07:05:51.994Z,89.13
2023-01-29T07:08:19.059Z,89.62
2023-01-29T07:10:45.604Z,88.61
2023-01-29T07:13:12.117Z,88.91
2023-01-29T07:15:38.651Z,89.47
2023-01-29T07:18:11.968Z,88.75
2023-01-29T07:20:42.813Z,89.67
2023-01-29T07:23:13.481Z,89.46
2023-01-29T07:25:40.591Z,89.69
2023-01-29T07:28:07.671Z,89.43
2023-01-29T07:30:34.414Z,89.31
2023-01-29T07:33:07.442Z,89.43
2023-01-29T07:35:42.063Z,89.50
2023-01-29T07:38:10.295Z,89.76
2023-01-29T07:40:37.319Z,89.38
2023-01-29T07:43:06.688Z,89.32
2023-01-29T07:45:35.404Z,89.03
2023-01-29T07:48:02.061Z,88.91
2023-01-29T07:50:28.619Z,88.73
2023-01-29T07:52:55.274Z,88.92
2023-01-29T07:55:21.750Z,89.11
2023-01-29T07:57:48.309Z,89.03
2023-01-29T08:00:15.539Z,88.66
2023-01-29T08:02:42.337Z,88.57
2023-01-29T08:05:09.221Z,88.76
2023-01-29T08:07:35.729Z,88.62
2023-01-29T08:10:02.253Z,88.53
2023-01-29T08:12:28.807Z,88.55
2023-01-29T08:14:55.406Z,88.46
2023-01-29T08:17:21.946Z,88.42
2023-01-29T08:19:48.488Z,87.46
2023-01-29T08:22:17.823Z,87.37
2023-01-29T08:24:53.707Z,87.49
2023-01-29T08:27:26.926Z,87.76
2023-01-29T08:29:53.492Z,87.14
2023-01-29T08:32:19.982Z,87.15
2023-01-29T08:34:46.411Z,86.87
2023-01-29T08:37:12.877Z,86.77
2023-01-29T08:39:39.431Z,86.72
2023-01-29T08:42:06.083Z,86.90
2023-01-29T08:44:32.627Z,86.97
2023-01-29T08:46:59.111Z,86.72
2023-01-29T08:49:25.731Z,86.66
2023-01-29T08:51:52.227Z,86.10
2023-01-29T08:54:18.680Z,85.79
2023-01-29T08:56:45.740Z,85.89
2023-01-29T08:59:12.442Z,86.28
2023-01-29T09:01:38.915Z,86.47
2023-01-29T09:04:05.446Z,85.69
2023-01-29T09:06:31.889Z,85.42
2023-01-29T09:08:58.408Z,85.38
2023-01-29T09:11:24.914Z,85.52
2023-01-29T09:13:51.480Z,86.00
2023-01-29T09:16:18.365Z,85.20
2023-01-29T09:18:44.898Z,84.83
2023-01-29T09:21:11.469Z,85.01
2023-01-29T09:23:38.236Z,85.30
2023-01-29T09:26:04.928Z,85.21
2023-01-29T09:28:31.473Z,85.32
2023-01-29T09:31:01.726Z,85.47
2023-01-29T09:33:29.120Z,85.18
2023-01-29T09:35:55.548Z,85.87
2023-01-29T09:38:23.033Z,85.29
2023-01-29T09:41:08.883Z,84.58
2023-01-29T09:43:59.014Z,84.86
2023-01-29T09:46:43.736Z,84.49
2023-01-29T09:49:21.099Z,84.79
2023-01-29T09:51:53.079Z,84.14
2023-01-29T09:54:47.119Z,83.90
2023-01-29T09:57:22.561Z,84.03
2023-01-29T09:59:49.194Z,83.90
2023-01-29T10:02:38.597Z,84.36
2023-01-29T10:05:16.939Z,84.04
2023-01-29T10:08:01.892Z,84.12
2023-01-29T10:10:36.406Z,84.01
2023-01-29T10:13:15.542Z,84.01
2023-01-29T10:15:49.853Z,84.14
2023-01-29T10:18:48.362Z,83.47
2023-01-29T10:21:27.161Z,83.78
2023-01-29T10:24:11.526Z,84.19
2023-01-29T10:26:40.660Z,83.91
2023-01-29T10:29:08.356Z,83.60
2023-01-29T10:31:40.304Z,83.60
2023-01-29T10:34:19.192Z,83.57
2023-01-29T10:36:48.127Z,83.75
2023-01-29T10:39:17.745Z,84.04
2023-01-29T10:42:09.955Z,84.01
2023-01-29T10:44:42.438Z,83.31
2023-01-29T10:47:29.967Z,83.88
2023-01-29T10:50:17.532Z,84.04
2023-01-29T10:52:59.113Z,83.53
2023-01-29T10:55:46.195Z,83.68
2023-01-29T10:58:27.849Z,83.65
2023-01-29T11:00:54.335Z,83.53
2023-01-29T11:03:29.335Z,83.94
2023-01-29T11:06:03.017Z,83.19
2023-01-29T11:08:57.169Z,82.72
2023-01-29T11:11:36.314Z,83.78
2023-01-29T11:14:08.919Z,83.78
2023-01-29T11:16:47.484Z,82.98
2023-01-29T11:19:15.348Z,83.31
2023-01-29T11:22:01.909Z,83.34
2023-01-29T11:24:28.613Z,83.53
2023-01-29T11:26:58.780Z,83.84
2023-01-29T11:29:48.098Z,84.05
2023-01-29T11:32:23.777Z,83.73
2023-01-29T11:35:19.623Z,83.91
2023-01-29T11:37:47.012Z,83.21
2023-01-29T11:40:19.704Z,83.65
2023-01-29T11:42:47.402Z,84.10
2023-01-29T11:45:19.858Z,84.27
2023-01-29T11:48:04.964Z,84.04
2023-01-29T11:50:33.700Z,84.03
2023-01-29T11:53:00.389Z,84.10
2023-01-29T11:55:48.191Z,83.95
2023-01-29T11:58:21.316Z,84.36
2023-01-29T12:00:52.032Z,84.77
2023-01-29T12:03:24.914Z,84.99
2023-01-29T12:06:02.861Z,84.95
2023-01-29T12:08:36.604Z,84.83
2023-01-29T12:11:14.042Z,85.28
2023-01-29T12:13:43.408Z,85.60
2023-01-29T12:16:20.634Z,85.67
2023-01-29T12:19:15.777Z,85.68
2023-01-29T12:22:04.100Z,86.15
2023-01-29T12:24:30.645Z,86.08
2023-01-29T12:27:23.723Z,86.12
2023-01-29T12:29:56.515Z,86.25
2023-01-29T12:32:36.987Z,86.34
2023-01-29T12:35:13.363Z,86.37
2023-01-29T12:38:10.565Z,85.87
2023-01-29T12:40:55.580Z,86.86
2023-01-29T12:43:40.212Z,86.28
2023-01-29T12:46:15.074Z,86.20
2023-01-29T12:48:44.279Z,85.53
2023-01-29T12:51:16.507Z,86.38
2023-01-29T12:53:59.823Z,86.37
2023-01-29T12:56:39.838Z,86.24
2023-01-29T12:59:19.838Z,86.17
2023-01-29T13:01:59.554Z,86.69
2023-01-29T13:04:35.274Z,86.26
2023-01-29T13:07:12.182Z,86.47
2023-01-29T13:09:43.164Z,85.99
2023-01-29T13:12:18.619Z,86.63
2023-01-29T13:15:06.799Z,86.68
2023-01-29T13:17:38.009Z,86.52
2023-01-29T13:20:21.230Z,87.00
2023-01-29T13:22:49.667Z,87.05
2023-01-29T13:25:19.042Z,86.87
2023-01-29T13:27:48.685Z,87.21
2023-01-29T13:30:28.373Z,86.65
2023-01-29T13:33:09.063Z,86.85
2023-01-29T13:35:43.060Z,86.80
2023-01-29T13:38:28.450Z,86.60
2023-01-29T13:41:03.209Z,86.77
2023-01-29T13:43:37.076Z,86.68
2023-01-29T13:46:14.415Z,86.90
2023-01-29T13:48:43.348Z,86.50
2023-01-29T13:51:15.648Z,86.47
2023-01-29T13:53:44.177Z,86.13
2023-01-29T13:56:32.608Z,86.16
2023-01-29T13:59:00.696Z,86.48
2023-01-29T14:01:45.520Z,86.54
2023-01-29T14:04:31.885Z,86.40
2023-01-29T14:06:59.580Z,86.48
2023-01-29T14:09:38.444Z,86.57
2023-01-29T14:12:25.362Z,86.82
2023-01-29T14:14:56.635Z,86.58
2023-01-29T14:17:26.839Z,86.65
2023-01-29T14:20:00.234Z,86.51
2023-01-29T14:22:28.624Z,86.87
2023-01-29T14:25:05.854Z,87.08
2023-01-29T14:27:32.920Z,86.96
2023-01-29T14:30:07.487Z,86.75
2023-01-29T14:32:34.096Z,87.07
2023-01-29T14:35:17.815Z,86.72
2023-01-29T14:37:49.120Z,87.01
2023-01-29T14:40:23.711Z,87.30
2023-01-29T14:43:19.940Z,86.92
2023-01-29T14:45:48.171Z,87.05
2023-01-29T14:48:46.250Z,86.81
2023-01-29T14:51:17.667Z,87.07
2023-01-29T14:53:53.415Z,86.73
2023-01-29T14:56:40.733Z,86.82
2023-01-29T14:59:30.934Z,87.02
2023-01-29T15:02:03.454Z,87.07
2023-01-29T15:04:44.475Z,87.28
2023-01-29T15:07:10.910Z,86.79
2023-01-29T15:09:54.180Z,87.22
2023-01-29T15:12:31.456Z,87.57
2023-01-29T15:15:06.448Z,87.13
2023-01-29T15:17:55.623Z,87.33
2023-01-29T15:20:41.444Z,87.36
2023-01-29T15:23:30.378Z,87.16
2023-01-29T15:26:01.640Z,88.09
2023-01-29T15:28:33.254Z,87.65
2023-01-29T15:31:04.227Z,87.63
2023-01-29T15:33:32.114Z,87.55
2023-01-29T15:36:07.670Z,87.96
2023-01-29T15:38:35.525Z,88.19
2023-01-29T15:41:14.367Z,87.96
2023-01-29T15:43:44.956Z,88.25
2023-01-29T15:46:15.797Z,88.06
2023-01-29T15:48:44.531Z,88.36
2023-01-29T15:51:17.572Z,88.54
2023-01-29T15:53:54.135Z,88.21
2023-01-29T15:56:28.215Z,88.78
2023-01-29T15:58:57.392Z,88.99
2023-01-29T16:01:27.587Z,89.09
2023-01-29T16:03:54.669Z,89.59
2023-01-29T16:06:22.887Z,89.36
2023-01-29T16:08:54.506Z,89.70
2023-01-29T16:11:21.703Z,89.76
2023-01-29T16:13:49.871Z,89.84
2023-01-29T16:16:16.421Z,90.63
2023-01-29T16:18:57.795Z,91.72
2023-01-29T16:21:25.612Z,92.02
2023-01-29T16:23:56.318Z,92.86
2023-01-29T16:26:28.205Z,92.69
2023-01-29T16:28:55.589Z,93.08
2023-01-29T16:31:31.241Z,93.29
2023-01-29T16:33:59.719Z,92.94
2023-01-29T16:36:27.864Z,93.74
2023-01-29T16:39:01.076Z,94.67
2023-01-29T16:41:30.996Z,94.42
2023-01-29T16:44:24.835Z,95.33
2023-01-29T16:46:52.209Z,96.37
2023-01-29T16:49:32.263Z,97.00
2023-01-29T16:52:17.578Z,97.29
2023-01-29T16:54:44.342Z,97.01
2023-01-29T16:57:34.323Z,97.26
2023-01-29T17:00:06.786Z,97.23
2023-01-29T17:02:38.471Z,98.07
2023-01-29T17:05:20.818Z,98.17
2023-01-29T17:07:47.701Z,98.28
2023-01-29T17:10:21.523Z,98.24
2023-01-29T17:12:55.755Z,97.96
2023-01-29T17:15:33.533Z,97.84
2023-01-29T17:18:00.191Z,98.39
2023-01-29T17:20:27.939Z,98.33
2023-01-29T17:22:54.932Z,97.78
2023-01-29T17:25:22.087Z,97.84
2023-01-29T17:27:51.752Z,97.74
2023-01-29T17:30:24.481Z,97.49
2023-01-29T17:32:50.973Z,97.67
2023-01-29T17:35:18.194Z,96.76
2023-01-29T17:37:44.979Z,96.64
2023-01-29T17:40:21.680Z,96.57
2023-01-29T17:42:48.251Z,96.35
2023-01-29T17:45:15.089Z,96.13
2023-01-29T17:47:41.768Z,95.76
2023-01-29T17:50:25.640Z,95.39
2023-01-29T17:52:53.228Z,95.14
2023-01-29T17:55:20.619Z,94.61
2023-01-29T17:57:47.130Z,94.57
2023-01-29T18:00:19.467Z,94.61
2023-01-29T18:02:46.208Z,94.55
2023-01-29T18:05:14.121Z,94.44
2023-01-29T18:07:43.408Z,94.17
2023-01-29T18:10:17.234Z,94.58
2023-01-29T18:12:44.011Z,94.28
2023-01-29T18:15:11.975Z,94.56
2023-01-29T18:17:39.616Z,94.78
2023-01-29T18:20:22.654Z,94.55
2023-01-29T18:22:49.281Z,94.96
2023-01-29T18:25:16.500Z,94.84
2023-01-29T18:27:43.299Z,94.58
2023-01-29T18:30:10.974Z,94.52
2023-01-29T18:32:37.594Z,94.65
2023-01-29T18:35:06.114Z,94.73
2023-01-29T18:37:33.683Z,95.11
2023-01-29T18:40:00.243Z,94.92
2023-01-29T18:42:26.805Z,94.69
2023-01-29T18:44:53.374Z,95.06
2023-01-29T18:47:20.069Z,95.10
2023-01-29T18:49:46.515Z,95.23
2023-01-29T18:52:13.591Z,94.99
2023-01-29T18:54:40.109Z,95.09
2023-01-29T18:57:14.421Z,95.18
2023-01-29T18:59:53.135Z,95.42
2023-01-29T19:02:19.850Z,95.30
2023-01-29T19:04:47.029Z,95.51
2023-01-29T19:07:14.824Z,95.19
2023-01-29T19:09:42.243Z,95.32
2023-01-29T19:12:08.940Z,95.18
2023-01-29T19:14:35.439Z,95.32
2023-01-29T19:17:01.972Z,95.43
2023-01-29T19:19:28.831Z,95.29
2023-01-29T19:21:55.434Z,95.48
2023-01-29T19:24:22.667Z,95.58
2023-01-29T19:26:49.939Z,95.33
2023-01-29T19:29:16.743Z,95.69
2023-01-29T19:31:43.674Z,95.73
2023-01-29T19:34:10.274Z,95.67
2023-01-29T19:36:37.058Z,95.64
2023-01-29T19:39:04.921Z,95.74
2023-01-29T19:41:31.527Z,96.04
2023-01-29T19:43:58.024Z,95.73
2023-01-29T19:46:24.502Z,96.09
2023-01-29T19:48:51.040Z,96.01
2023-01-29T19:51:17.597Z,96.17
2023-01-29T19:53:44.160Z,96.29
2023-01-29T19:56:17.009Z,96.38
2023-01-29T19:58:43.644Z,96.22
2023-01-29T20:01:19.820Z,96.40
2023-01-29T20:03:48.048Z,96.44
2023-01-29T20:06:22.177Z,96.61
2023-01-29T20:08:49.123Z,96.70
2023-01-29T20:11:17.764Z,97.13
2023-01-29T20:13:47.439Z,96.92
2023-01-29T20:16:14.313Z,97.30
2023-01-29T20:18:40.839Z,97.05
2023-01-29T20:21:10.301Z,96.88
2023-01-29T20:23:38.923Z,97.17
2023-01-29T20:26:11.554Z,97.31
2023-01-29T20:28:38.258Z,97.20
2023-01-29T20:31:05.897Z,97.36
2023-01-29T20:33:34.661Z,97.58
2023-01-29T20:36:04.358Z,97.51
2023-01-29T20:38:31.773Z,97.73
2023-01-29T20:41:04.874Z,97.62
2023-01-29T20:43:32.064Z,97.78
2023-01-29T20:45:59.414Z,98.13
2023-01-29T20:48:26.539Z,98.14
2023-01-29T20:50:54.171Z,98.48
2023-01-29T20:53:20.640Z,98.31
2023-01-29T20:55:47.363Z,98.93
2023-01-29T20:58:14.212Z,99.10
2023-01-29T21:00:41.364Z,99.37
2023-01-29T21:03:07.971Z,99.51
2023-01-29T21:05:34.460Z,99.82
2023-01-29T21:08:01.021Z,99.91
2023-01-29T21:10:27.487Z,99.97
2023-01-29T21:12:54.681Z,100.00
2023-01-29T21:15:21.352Z,100.00
2023-01-29T21:17:48.263Z,100.00
2023-01-29T21:20:15.132Z,100.00
2023-01-29T21:22:43.917Z,100.00
2023-01-29T21:25:11.106Z,100.00
2023-01-29T21:27:37.621Z,100.00
2023-01-29T21:30:04.684Z,100.00
2023-01-29T21:32:31.213Z,100.00
2023-01-29T21:34:57.758Z,100.00
2023-01-29T21:37:24.232Z,100.00
2023-01-29T21:39:50.746Z,100.00
2023-01-29T21:42:35.806Z,100.00
2023-01-29T21:45:02.327Z,100.00
2023-01-29T21:47:28.799Z,100.00
2023-01-29T21:49:55.254Z,100.00
2023-01-29T21:52:21.821Z,100.00
2023-01-29T21:54:48.836Z,100.00
2023-01-29T21:57:16.335Z,100.00
2023-01-29T21:59:43.489Z,100.00
2023-01-29T22:02:14.867Z,100.00
2023-01-29T22:04:42.636Z,100.00
2023-01-29T22:07:10.462Z,100.00
2023-01-29T22:09:37.614Z,100.00
2023-01-29T22:12:06.688Z,100.00
2023-01-29T22:14:33.784Z,100.00
2023-01-29T22:17:00.387Z,100.00
2023-01-29T22:19:28.689Z,100.00
2023-01-29T22:21:55.549Z,100.00
2023-01-29T22:24:22.085Z,100.00
2023-01-29T22:26:49.532Z,100.00
2023-01-29T22:29:17.075Z,100.00
2023-01-29T22:31:44.416Z,100.00
2023-01-29T22:34:12.006Z,100.00
2023-01-29T22:36:39.202Z,100.00
2023-01-29T22:39:09.262Z,100.00
2023-01-29T22:41:36.087Z,100.00
2023-01-29T22:44:02.764Z,100.00
2023-01-29T22:46:29.338Z,100.00
2023-01-29T22:48:56.558Z,100.00
2023-01-29T22:51:23.422Z,100.00
2023-01-29T22:53:56.272Z,100.00
2023-01-29T22:56:26.247Z,100.00
2023-01-29T22:58:54.377Z,100.00
2023-01-29T23:01:31.821Z,100.00
2023-01-29T23:03:58.405Z,100.00
2023-01-29T23:06:24.907Z,100.00
2023-01-29T23:08:51.620Z,100.00
2023-01-29T23:11:20.481Z,100.00
2023-01-29T23:13:52.828Z,100.00
2023-01-29T23:16:22.065Z,100.00
2023-01-29T23:18:53.699Z,100.00
2023-01-29T23:21:22.674Z,100.00
2023-01-29T23:23:49.229Z,100.00
2023-01-29T23:26:34.440Z,100.00
2023-01-29T23:29:01.023Z,100.00
2023-01-29T23:31:27.521Z,100.00
2023-01-29T23:33:54.026Z,100.00
2023-01-29T23:36:20.530Z,100.00
2023-01-29T23:38:47.027Z,100.00
2023-01-29T23:41:13.586Z,100.00
2023-01-29T23:43:40.128Z,100.00
2023-01-29T23:46:06.634Z,100.00
2023-01-29T23:48:33.289Z,100.00
2023-01-29T23:50:59.765Z,100.00
2023-01-29T23:53:26.352Z,100.00
2023-01-29T23:55:58.062Z,100.00
2023-01-29T23:58:25.035Z,100.00
